sensor_id;sensor_type;location;lat;lon;timestamp;P1;durP1;ratioP1;P2;durP2;ratioP2
1088;SDS011;533;53.556;9.990;2022-09-12T00:02:15;6.87;;;5.93;;
1088;SDS011;533;53.556;9.990;2022-09-12T00:04:47;7.80;;;5.70;;
1088;SDS011;533;53.556;9.990;2022-09-12T00:07:19;7.63;;;5.87;;
1088;SDS011;533;53.556;9.990;2022-09-12T00:09:51;6.80;;;6.00;;
1088;SDS011;533;53.556;9.990;2022-09-12T00:12:23;6.40;;;5.80;;
1088;SDS011;533;53.556;9.990;2022-09-12T00:14:55;8.00;;;5.13;;
1088;SDS011;533;53.556;9.990;2022-09-12T00:17:26;8.07;;;6.67;;
1088;SDS011;533;53.556;9.990;2022-09-12T00:19:58;8.67;;;6.20;;
1088;SDS011;533;53.556;9.990;2022-09-12T00:22:30;7.37;;;6.40;;
1088;SDS011;533;53.556;9.990;2022-09-12T00:25:02;6.63;;;5.80;;
1088;SDS011;533;53.556;9.990;2022-09-12T00:27:35;8.57;;;6.50;;
1088;SDS011;533;53.556;9.990;2022-09-12T00:30:07;8.40;;;5.83;;
1088;SDS011;533;53.556;9.990;2022-09-12T00:32:39;6.53;;;5.93;;
1088;SDS011;533;53.556;9.990;2022-09-12T00:35:11;9.03;;;6.50;;
1088;SDS011;533;53.556;9.990;2022-09-12T00:37:43;8.07;;;6.10;;
1088;SDS011;533;53.556;9.990;2022-09-12T00:40:15;6.67;;;6.03;;
1088;SDS011;533;53.556;9.990;2022-09-12T00:42:47;6.53;;;5.90;;
1088;SDS011;533;53.556;9.990;2022-09-12T00:45:22;7.87;;;7.07;;
1088;SDS011;533;53.556;9.990;2022-09-12T00:47:56;8.47;;;6.30;;
1088;SDS011;533;53.556;9.990;2022-09-12T00:50:29;7.57;;;6.27;;
1088;SDS011;533;53.556;9.990;2022-09-12T00:53:03;7.83;;;5.87;;
1088;SDS011;533;53.556;9.990;2022-09-12T00:55:38;6.20;;;5.60;;
1088;SDS011;533;53.556;9.990;2022-09-12T00:58:22;6.70;;;5.27;;
1088;SDS011;533;53.556;9.990;2022-09-12T01:00:57;7.40;;;6.37;;
1088;SDS011;533;53.556;9.990;2022-09-12T01:03:29;9.70;;;6.60;;
1088;SDS011;533;53.556;9.990;2022-09-12T01:06:06;7.17;;;6.23;;
1088;SDS011;533;53.556;9.990;2022-09-12T01:08:42;6.50;;;5.60;;
1088;SDS011;533;53.556;9.990;2022-09-12T01:11:14;8.27;;;6.80;;
1088;SDS011;533;53.556;9.990;2022-09-12T01:13:47;6.80;;;6.20;;
1088;SDS011;533;53.556;9.990;2022-09-12T01:16:19;8.40;;;6.37;;
1088;SDS011;533;53.556;9.990;2022-09-12T01:38:44;7.80;;;6.93;;
1088;SDS011;533;53.556;9.990;2022-09-12T01:46:56;10.27;;;6.47;;
1088;SDS011;533;53.556;9.990;2022-09-12T01:52:42;9.10;;;6.70;;
1088;SDS011;533;53.556;9.990;2022-09-12T01:55:33;6.13;;;5.53;;
1088;SDS011;533;53.556;9.990;2022-09-12T01:58:08;6.70;;;5.83;;
1088;SDS011;533;53.556;9.990;2022-09-12T02:00:49;6.70;;;6.00;;
1088;SDS011;533;53.556;9.990;2022-09-12T02:03:47;11.10;;;7.20;;
1088;SDS011;533;53.556;9.990;2022-09-12T02:06:24;7.10;;;6.43;;
1088;SDS011;533;53.556;9.990;2022-09-12T02:09:00;8.30;;;7.50;;
1088;SDS011;533;53.556;9.990;2022-09-12T02:11:35;7.63;;;6.90;;
1088;SDS011;533;53.556;9.990;2022-09-12T02:14:18;8.50;;;7.60;;
1088;SDS011;533;53.556;9.990;2022-09-12T02:16:54;7.40;;;6.57;;
1088;SDS011;533;53.556;9.990;2022-09-12T02:19:34;7.93;;;7.13;;
1088;SDS011;533;53.556;9.990;2022-09-12T02:22:10;8.20;;;6.90;;
1088;SDS011;533;53.556;9.990;2022-09-12T02:24:49;7.30;;;6.37;;
1088;SDS011;533;53.556;9.990;2022-09-12T02:27:27;7.20;;;6.00;;
1088;SDS011;533;53.556;9.990;2022-09-12T02:30:06;7.40;;;6.43;;
1088;SDS011;533;53.556;9.990;2022-09-12T02:32:44;8.13;;;6.53;;
1088;SDS011;533;53.556;9.990;2022-09-12T02:35:34;7.53;;;6.70;;
1088;SDS011;533;53.556;9.990;2022-09-12T02:38:12;10.00;;;7.80;;
1088;SDS011;533;53.556;9.990;2022-09-12T02:40:48;8.97;;;7.97;;
1088;SDS011;533;53.556;9.990;2022-09-12T02:43:20;11.53;;;10.33;;
1088;SDS011;533;53.556;9.990;2022-09-12T02:45:52;11.30;;;9.50;;
1088;SDS011;533;53.556;9.990;2022-09-12T02:48:26;10.57;;;8.70;;
1088;SDS011;533;53.556;9.990;2022-09-12T02:50:59;9.73;;;7.97;;
1088;SDS011;533;53.556;9.990;2022-09-12T02:53:33;11.17;;;9.57;;
1088;SDS011;533;53.556;9.990;2022-09-12T02:56:06;11.00;;;9.50;;
1088;SDS011;533;53.556;9.990;2022-09-12T02:58:41;10.60;;;9.40;;
1088;SDS011;533;53.556;9.990;2022-09-12T03:09:35;17.90;;;13.33;;
1088;SDS011;533;53.556;9.990;2022-09-12T03:20:28;19.00;;;15.80;;
1088;SDS011;533;53.556;9.990;2022-09-12T03:23:09;19.33;;;13.70;;
1088;SDS011;533;53.556;9.990;2022-09-12T03:25:48;16.53;;;14.80;;
1088;SDS011;533;53.556;9.990;2022-09-12T03:28:23;19.17;;;16.80;;
1088;SDS011;533;53.556;9.990;2022-09-12T03:30:55;19.10;;;16.67;;
1088;SDS011;533;53.556;9.990;2022-09-12T03:33:27;23.63;;;19.03;;
1088;SDS011;533;53.556;9.990;2022-09-12T03:35:59;20.03;;;14.60;;
1088;SDS011;533;53.556;9.990;2022-09-12T03:38:31;20.17;;;16.73;;
1088;SDS011;533;53.556;9.990;2022-09-12T03:41:03;20.60;;;16.97;;
1088;SDS011;533;53.556;9.990;2022-09-12T03:43:35;19.57;;;17.40;;
1088;SDS011;533;53.556;9.990;2022-09-12T03:46:07;20.93;;;15.90;;
1088;SDS011;533;53.556;9.990;2022-09-12T03:48:39;20.67;;;16.60;;
1088;SDS011;533;53.556;9.990;2022-09-12T03:51:12;18.47;;;16.43;;
1088;SDS011;533;53.556;9.990;2022-09-12T03:53:43;31.23;;;17.40;;
1088;SDS011;533;53.556;9.990;2022-09-12T03:56:16;18.60;;;14.70;;
1088;SDS011;533;53.556;9.990;2022-09-12T03:58:49;16.93;;;14.80;;
1088;SDS011;533;53.556;9.990;2022-09-12T04:01:22;19.53;;;15.77;;
1088;SDS011;533;53.556;9.990;2022-09-12T04:03:54;18.87;;;14.63;;
1088;SDS011;533;53.556;9.990;2022-09-12T04:06:26;16.87;;;13.77;;
1088;SDS011;533;53.556;9.990;2022-09-12T04:08:58;18.23;;;16.10;;
1088;SDS011;533;53.556;9.990;2022-09-12T04:11:30;16.70;;;13.83;;
1088;SDS011;533;53.556;9.990;2022-09-12T04:14:02;17.90;;;14.27;;
1088;SDS011;533;53.556;9.990;2022-09-12T04:16:34;19.27;;;15.60;;
1088;SDS011;533;53.556;9.990;2022-09-12T04:19:06;16.87;;;14.30;;
1088;SDS011;533;53.556;9.990;2022-09-12T04:21:38;18.93;;;15.60;;
1088;SDS011;533;53.556;9.990;2022-09-12T04:24:10;19.43;;;15.63;;
1088;SDS011;533;53.556;9.990;2022-09-12T04:26:42;18.80;;;15.80;;
1088;SDS011;533;53.556;9.990;2022-09-12T04:29:15;17.30;;;15.30;;
1088;SDS011;533;53.556;9.990;2022-09-12T04:31:46;18.40;;;15.60;;
1088;SDS011;533;53.556;9.990;2022-09-12T04:34:18;19.47;;;16.77;;
1088;SDS011;533;53.556;9.990;2022-09-12T04:36:50;21.63;;;17.20;;
1088;SDS011;533;53.556;9.990;2022-09-12T04:39:23;19.10;;;15.70;;
1088;SDS011;533;53.556;9.990;2022-09-12T04:41:54;19.60;;;16.20;;
1088;SDS011;533;53.556;9.990;2022-09-12T04:44:27;20.27;;;16.57;;
1088;SDS011;533;53.556;9.990;2022-09-12T04:46:59;19.93;;;16.63;;
1088;SDS011;533;53.556;9.990;2022-09-12T04:49:31;18.73;;;15.97;;
1088;SDS011;533;53.556;9.990;2022-09-12T04:52:03;21.07;;;16.13;;
1088;SDS011;533;53.556;9.990;2022-09-12T04:54:35;19.67;;;15.10;;
1088;SDS011;533;53.556;9.990;2022-09-12T04:57:08;17.30;;;14.30;;
1088;SDS011;533;53.556;9.990;2022-09-12T04:59:41;16.47;;;14.13;;
1088;SDS011;533;53.556;9.990;2022-09-12T05:02:13;16.10;;;14.40;;
1088;SDS011;533;53.556;9.990;2022-09-12T05:04:45;17.80;;;14.50;;
1088;SDS011;533;53.556;9.990;2022-09-12T05:07:17;15.70;;;13.80;;
1088;SDS011;533;53.556;9.990;2022-09-12T05:09:49;16.73;;;13.73;;
1088;SDS011;533;53.556;9.990;2022-09-12T05:12:22;18.90;;;15.57;;
1088;SDS011;533;53.556;9.990;2022-09-12T05:14:54;21.43;;;16.67;;
1088;SDS011;533;53.556;9.990;2022-09-12T05:17:27;20.73;;;16.13;;
1088;SDS011;533;53.556;9.990;2022-09-12T05:20:00;25.80;;;20.97;;
1088;SDS011;533;53.556;9.990;2022-09-12T05:22:33;23.73;;;18.73;;
1088;SDS011;533;53.556;9.990;2022-09-12T05:25:05;29.60;;;20.90;;
1088;SDS011;533;53.556;9.990;2022-09-12T05:27:37;33.97;;;20.63;;
1088;SDS011;533;53.556;9.990;2022-09-12T05:30:09;32.47;;;20.17;;
1088;SDS011;533;53.556;9.990;2022-09-12T05:32:41;29.83;;;22.57;;
1088;SDS011;533;53.556;9.990;2022-09-12T05:35:13;26.03;;;19.27;;
1088;SDS011;533;53.556;9.990;2022-09-12T05:37:45;23.70;;;17.80;;
1088;SDS011;533;53.556;9.990;2022-09-12T05:40:17;28.93;;;19.53;;
1088;SDS011;533;53.556;9.990;2022-09-12T05:42:49;30.77;;;19.90;;
1088;SDS011;533;53.556;9.990;2022-09-12T05:45:21;25.13;;;17.70;;
1088;SDS011;533;53.556;9.990;2022-09-12T05:47:54;25.03;;;19.37;;
1088;SDS011;533;53.556;9.990;2022-09-12T05:50:26;29.63;;;20.57;;
1088;SDS011;533;53.556;9.990;2022-09-12T05:52:57;30.53;;;19.27;;
1088;SDS011;533;53.556;9.990;2022-09-12T05:55:29;33.03;;;21.97;;
1088;SDS011;533;53.556;9.990;2022-09-12T05:58:02;34.43;;;21.47;;
1088;SDS011;533;53.556;9.990;2022-09-12T06:00:34;33.23;;;21.93;;
1088;SDS011;533;53.556;9.990;2022-09-12T06:03:07;35.87;;;21.67;;
1088;SDS011;533;53.556;9.990;2022-09-12T06:05:40;37.03;;;23.80;;
1088;SDS011;533;53.556;9.990;2022-09-12T06:08:12;39.77;;;23.37;;
1088;SDS011;533;53.556;9.990;2022-09-12T06:10:44;48.33;;;26.90;;
1088;SDS011;533;53.556;9.990;2022-09-12T06:13:16;38.80;;;23.10;;
1088;SDS011;533;53.556;9.990;2022-09-12T06:15:47;45.33;;;24.53;;
1088;SDS011;533;53.556;9.990;2022-09-12T06:18:19;47.17;;;24.97;;
1088;SDS011;533;53.556;9.990;2022-09-12T06:20:51;35.73;;;24.30;;
1088;SDS011;533;53.556;9.990;2022-09-12T06:23:23;36.57;;;24.57;;
1088;SDS011;533;53.556;9.990;2022-09-12T06:25:57;44.10;;;24.50;;
1088;SDS011;533;53.556;9.990;2022-09-12T06:28:30;48.60;;;23.70;;
1088;SDS011;533;53.556;9.990;2022-09-12T06:31:06;44.80;;;23.70;;
1088;SDS011;533;53.556;9.990;2022-09-12T06:33:41;33.87;;;22.43;;
1088;SDS011;533;53.556;9.990;2022-09-12T06:36:15;25.03;;;19.03;;
1088;SDS011;533;53.556;9.990;2022-09-12T06:38:52;35.07;;;22.57;;
1088;SDS011;533;53.556;9.990;2022-09-12T06:41:29;33.03;;;20.27;;
1088;SDS011;533;53.556;9.990;2022-09-12T06:44:02;26.20;;;19.43;;
1088;SDS011;533;53.556;9.990;2022-09-12T06:46:34;26.47;;;19.03;;
1088;SDS011;533;53.556;9.990;2022-09-12T06:49:06;24.93;;;17.10;;
1088;SDS011;533;53.556;9.990;2022-09-12T06:51:38;30.37;;;19.47;;
1088;SDS011;533;53.556;9.990;2022-09-12T06:54:12;36.77;;;20.10;;
1088;SDS011;533;53.556;9.990;2022-09-12T06:56:45;27.30;;;19.60;;
1088;SDS011;533;53.556;9.990;2022-09-12T06:59:17;22.10;;;16.83;;
1088;SDS011;533;53.556;9.990;2022-09-12T07:01:50;29.23;;;17.83;;
1088;SDS011;533;53.556;9.990;2022-09-12T07:04:22;21.27;;;17.17;;
1088;SDS011;533;53.556;9.990;2022-09-12T07:06:54;21.53;;;16.33;;
1088;SDS011;533;53.556;9.990;2022-09-12T07:09:26;25.00;;;16.60;;
1088;SDS011;533;53.556;9.990;2022-09-12T07:11:58;25.67;;;17.13;;
1088;SDS011;533;53.556;9.990;2022-09-12T07:14:31;23.47;;;16.90;;
1088;SDS011;533;53.556;9.990;2022-09-12T07:17:03;21.57;;;17.23;;
1088;SDS011;533;53.556;9.990;2022-09-12T07:19:36;24.70;;;16.40;;
1088;SDS011;533;53.556;9.990;2022-09-12T07:22:08;22.20;;;15.70;;
1088;SDS011;533;53.556;9.990;2022-09-12T07:24:40;24.33;;;16.87;;
1088;SDS011;533;53.556;9.990;2022-09-12T07:27:12;19.43;;;13.27;;
1088;SDS011;533;53.556;9.990;2022-09-12T07:29:44;17.33;;;13.70;;
1088;SDS011;533;53.556;9.990;2022-09-12T07:32:17;17.33;;;14.90;;
1088;SDS011;533;53.556;9.990;2022-09-12T07:34:49;17.83;;;14.00;;
1088;SDS011;533;53.556;9.990;2022-09-12T07:37:21;21.70;;;13.40;;
1088;SDS011;533;53.556;9.990;2022-09-12T07:39:55;16.23;;;13.23;;
1088;SDS011;533;53.556;9.990;2022-09-12T07:42:27;17.33;;;13.77;;
1088;SDS011;533;53.556;9.990;2022-09-12T07:44:59;16.13;;;14.43;;
1088;SDS011;533;53.556;9.990;2022-09-12T07:47:31;17.70;;;14.23;;
1088;SDS011;533;53.556;9.990;2022-09-12T07:50:03;17.07;;;14.67;;
1088;SDS011;533;53.556;9.990;2022-09-12T07:52:37;19.67;;;14.53;;
1088;SDS011;533;53.556;9.990;2022-09-12T07:55:09;16.90;;;14.00;;
1088;SDS011;533;53.556;9.990;2022-09-12T07:57:41;18.30;;;13.60;;
1088;SDS011;533;53.556;9.990;2022-09-12T08:00:13;17.63;;;13.97;;
1088;SDS011;533;53.556;9.990;2022-09-12T08:02:50;16.57;;;14.77;;
1088;SDS011;533;53.556;9.990;2022-09-12T08:05:23;18.10;;;15.33;;
1088;SDS011;533;53.556;9.990;2022-09-12T08:07:57;15.53;;;14.03;;
1088;SDS011;533;53.556;9.990;2022-09-12T08:10:30;17.80;;;13.50;;
1088;SDS011;533;53.556;9.990;2022-09-12T08:13:02;19.27;;;12.83;;
1088;SDS011;533;53.556;9.990;2022-09-12T08:15:34;15.00;;;12.40;;
1088;SDS011;533;53.556;9.990;2022-09-12T08:18:06;16.80;;;12.87;;
1088;SDS011;533;53.556;9.990;2022-09-12T08:20:39;17.93;;;12.57;;
1088;SDS011;533;53.556;9.990;2022-09-12T08:23:11;17.13;;;12.03;;
1088;SDS011;533;53.556;9.990;2022-09-12T08:25:42;18.07;;;13.90;;
1088;SDS011;533;53.556;9.990;2022-09-12T08:28:15;14.80;;;13.30;;
1088;SDS011;533;53.556;9.990;2022-09-12T08:30:47;15.47;;;12.30;;
1088;SDS011;533;53.556;9.990;2022-09-12T08:33:19;13.40;;;12.00;;
1088;SDS011;533;53.556;9.990;2022-09-12T08:35:51;13.57;;;12.10;;
1088;SDS011;533;53.556;9.990;2022-09-12T08:38:23;16.97;;;11.43;;
1088;SDS011;533;53.556;9.990;2022-09-12T08:41:08;11.67;;;9.23;;
1088;SDS011;533;53.556;9.990;2022-09-12T08:43:55;11.80;;;9.63;;
1088;SDS011;533;53.556;9.990;2022-09-12T08:49:04;11.40;;;9.93;;
1088;SDS011;533;53.556;9.990;2022-09-12T08:51:40;13.17;;;9.10;;
1088;SDS011;533;53.556;9.990;2022-09-12T08:54:18;19.03;;;10.30;;
1088;SDS011;533;53.556;9.990;2022-09-12T08:56:55;15.23;;;11.57;;
1088;SDS011;533;53.556;9.990;2022-09-12T08:59:34;10.03;;;7.23;;
1088;SDS011;533;53.556;9.990;2022-09-12T09:05:26;8.73;;;7.80;;
1088;SDS011;533;53.556;9.990;2022-09-12T09:08:21;7.63;;;6.90;;
1088;SDS011;533;53.556;9.990;2022-09-12T09:14:01;7.93;;;7.23;;
1088;SDS011;533;53.556;9.990;2022-09-12T09:16:53;8.10;;;7.20;;
1088;SDS011;533;53.556;9.990;2022-09-12T09:19:34;7.37;;;6.67;;
1088;SDS011;533;53.556;9.990;2022-09-12T09:22:11;7.93;;;6.50;;
1088;SDS011;533;53.556;9.990;2022-09-12T09:25:10;12.30;;;7.73;;
1088;SDS011;533;53.556;9.990;2022-09-12T09:31:02;11.87;;;7.73;;
1088;SDS011;533;53.556;9.990;2022-09-12T09:33:34;8.57;;;7.77;;
1088;SDS011;533;53.556;9.990;2022-09-12T09:36:14;8.53;;;7.50;;
1088;SDS011;533;53.556;9.990;2022-09-12T09:44:22;10.80;;;9.07;;
1088;SDS011;533;53.556;9.990;2022-09-12T09:46:54;10.10;;;8.07;;
1088;SDS011;533;53.556;9.990;2022-09-12T09:49:29;9.93;;;8.93;;
1088;SDS011;533;53.556;9.990;2022-09-12T09:52:05;8.17;;;7.07;;
1088;SDS011;533;53.556;9.990;2022-09-12T09:54:43;8.37;;;7.47;;
1088;SDS011;533;53.556;9.990;2022-09-12T10:05:46;6.23;;;5.33;;
1088;SDS011;533;53.556;9.990;2022-09-12T10:08:24;5.90;;;5.37;;
1088;SDS011;533;53.556;9.990;2022-09-12T10:11:22;7.37;;;5.03;;
1088;SDS011;533;53.556;9.990;2022-09-12T10:13:57;7.33;;;5.13;;
1088;SDS011;533;53.556;9.990;2022-09-12T10:16:33;9.63;;;5.77;;
1088;SDS011;533;53.556;9.990;2022-09-12T10:19:20;6.90;;;6.20;;
1088;SDS011;533;53.556;9.990;2022-09-12T10:21:56;8.77;;;5.20;;
1088;SDS011;533;53.556;9.990;2022-09-12T10:24:34;6.90;;;5.80;;
1088;SDS011;533;53.556;9.990;2022-09-12T10:29:44;6.60;;;5.80;;
1088;SDS011;533;53.556;9.990;2022-09-12T10:32:25;7.20;;;6.50;;
1088;SDS011;533;53.556;9.990;2022-09-12T10:35:03;10.50;;;7.10;;
1088;SDS011;533;53.556;9.990;2022-09-12T10:37:40;10.50;;;9.47;;
1088;SDS011;533;53.556;9.990;2022-09-12T10:40:38;6.50;;;5.90;;
1088;SDS011;533;53.556;9.990;2022-09-12T10:43:16;9.10;;;7.00;;
1088;SDS011;533;53.556;9.990;2022-09-12T10:49:12;5.87;;;5.37;;
1088;SDS011;533;53.556;9.990;2022-09-12T10:51:55;6.23;;;4.87;;
1088;SDS011;533;53.556;9.990;2022-09-12T10:54:30;7.53;;;5.40;;
1088;SDS011;533;53.556;9.990;2022-09-12T10:59:49;5.13;;;4.63;;
1088;SDS011;533;53.556;9.990;2022-09-12T11:02:27;5.70;;;4.90;;
1088;SDS011;533;53.556;9.990;2022-09-12T11:09:20;4.97;;;4.47;;
1088;SDS011;533;53.556;9.990;2022-09-12T11:11:28;6.00;;;4.47;;
1088;SDS011;533;53.556;9.990;2022-09-12T11:14:21;4.03;;;3.20;;
1088;SDS011;533;53.556;9.990;2022-09-12T11:23:21;5.40;;;4.07;;
1088;SDS011;533;53.556;9.990;2022-09-12T11:31:39;4.60;;;4.20;;
1088;SDS011;533;53.556;9.990;2022-09-12T11:34:20;6.90;;;5.90;;
1088;SDS011;533;53.556;9.990;2022-09-12T11:40:15;14.90;;;10.30;;
1088;SDS011;533;53.556;9.990;2022-09-12T11:43:02;8.80;;;3.90;;
1088;SDS011;533;53.556;9.990;2022-09-12T11:45:42;3.90;;;3.50;;
1088;SDS011;533;53.556;9.990;2022-09-12T11:48:36;7.70;;;4.17;;
1088;SDS011;533;53.556;9.990;2022-09-12T11:51:19;4.40;;;3.77;;
1088;SDS011;533;53.556;9.990;2022-09-12T11:54:00;6.93;;;4.07;;
1088;SDS011;533;53.556;9.990;2022-09-12T11:56:37;4.10;;;3.70;;
1088;SDS011;533;53.556;9.990;2022-09-12T11:59:27;3.50;;;3.20;;
1088;SDS011;533;53.556;9.990;2022-09-12T12:02:02;4.93;;;4.17;;
1088;SDS011;533;53.556;9.990;2022-09-12T12:04:36;6.70;;;4.13;;
1088;SDS011;533;53.556;9.990;2022-09-12T12:07:12;6.27;;;5.67;;
1088;SDS011;533;53.556;9.990;2022-09-12T12:09:49;5.23;;;4.17;;
1088;SDS011;533;53.556;9.990;2022-09-12T12:12:23;4.27;;;3.87;;
1088;SDS011;533;53.556;9.990;2022-09-12T12:14:56;6.30;;;4.60;;
1088;SDS011;533;53.556;9.990;2022-09-12T12:17:29;3.90;;;3.40;;
1088;SDS011;533;53.556;9.990;2022-09-12T12:20:02;4.80;;;3.90;;
1088;SDS011;533;53.556;9.990;2022-09-12T12:22:39;5.83;;;5.07;;
1088;SDS011;533;53.556;9.990;2022-09-12T12:25:24;6.30;;;4.50;;
1088;SDS011;533;53.556;9.990;2022-09-12T12:28:09;4.80;;;4.40;;
1088;SDS011;533;53.556;9.990;2022-09-12T12:30:57;7.90;;;3.97;;
1088;SDS011;533;53.556;9.990;2022-09-12T12:36:09;5.17;;;3.60;;
1088;SDS011;533;53.556;9.990;2022-09-12T12:38:59;5.07;;;3.30;;
1088;SDS011;533;53.556;9.990;2022-09-12T12:48:00;7.23;;;6.10;;
1088;SDS011;533;53.556;9.990;2022-09-12T12:50:40;7.30;;;5.33;;
1088;SDS011;533;53.556;9.990;2022-09-12T12:53:16;3.63;;;3.33;;
1088;SDS011;533;53.556;9.990;2022-09-12T12:55:51;3.80;;;3.37;;
1088;SDS011;533;53.556;9.990;2022-09-12T12:58:31;5.70;;;5.10;;
1088;SDS011;533;53.556;9.990;2022-09-12T13:03:41;4.70;;;4.30;;
1088;SDS011;533;53.556;9.990;2022-09-12T13:09:19;4.63;;;4.20;;
1088;SDS011;533;53.556;9.990;2022-09-12T13:12:07;6.10;;;4.60;;
1088;SDS011;533;53.556;9.990;2022-09-12T13:17:36;6.43;;;3.47;;
1088;SDS011;533;53.556;9.990;2022-09-12T13:22:58;4.20;;;3.20;;
1088;SDS011;533;53.556;9.990;2022-09-12T13:25:32;3.77;;;2.90;;
1088;SDS011;533;53.556;9.990;2022-09-12T13:30:53;10.83;;;8.50;;
1088;SDS011;533;53.556;9.990;2022-09-12T13:41:55;6.13;;;3.43;;
1088;SDS011;533;53.556;9.990;2022-09-12T13:44:41;5.10;;;4.00;;
1088;SDS011;533;53.556;9.990;2022-09-12T13:47:30;7.13;;;3.73;;
1088;SDS011;533;53.556;9.990;2022-09-12T13:50:10;5.23;;;4.40;;
1088;SDS011;533;53.556;9.990;2022-09-12T13:53:12;4.57;;;4.13;;
1088;SDS011;533;53.556;9.990;2022-09-12T13:55:46;4.83;;;3.43;;
1088;SDS011;533;53.556;9.990;2022-09-12T13:58:20;4.60;;;4.10;;
1088;SDS011;533;53.556;9.990;2022-09-12T14:03:42;4.83;;;4.33;;
1088;SDS011;533;53.556;9.990;2022-09-12T14:06:47;4.53;;;3.97;;
1088;SDS011;533;53.556;9.990;2022-09-12T14:09:22;4.40;;;4.00;;
1088;SDS011;533;53.556;9.990;2022-09-12T14:12:11;5.77;;;5.17;;
1088;SDS011;533;53.556;9.990;2022-09-12T14:14:49;6.30;;;5.70;;
1088;SDS011;533;53.556;9.990;2022-09-12T14:17:47;9.70;;;5.13;;
1088;SDS011;533;53.556;9.990;2022-09-12T14:20:20;7.33;;;5.70;;
1088;SDS011;533;53.556;9.990;2022-09-12T14:22:53;7.43;;;5.37;;
1088;SDS011;533;53.556;9.990;2022-09-12T14:25:25;7.03;;;6.33;;
1088;SDS011;533;53.556;9.990;2022-09-12T14:28:00;6.00;;;5.50;;
1088;SDS011;533;53.556;9.990;2022-09-12T14:30:33;7.40;;;4.57;;
1088;SDS011;533;53.556;9.990;2022-09-12T14:35:51;5.13;;;4.60;;
1088;SDS011;533;53.556;9.990;2022-09-12T14:38:43;6.10;;;4.93;;
1088;SDS011;533;53.556;9.990;2022-09-12T14:41:33;7.30;;;5.13;;
1088;SDS011;533;53.556;9.990;2022-09-12T14:44:09;5.23;;;4.73;;
1088;SDS011;533;53.556;9.990;2022-09-12T14:46:54;6.10;;;4.93;;
1088;SDS011;533;53.556;9.990;2022-09-12T14:49:33;5.40;;;4.60;;
1088;SDS011;533;53.556;9.990;2022-09-12T14:52:07;7.00;;;5.20;;
1088;SDS011;533;53.556;9.990;2022-09-12T14:54:55;5.30;;;4.80;;
1088;SDS011;533;53.556;9.990;2022-09-12T14:57:35;10.03;;;5.00;;
1088;SDS011;533;53.556;9.990;2022-09-12T15:02:47;6.83;;;4.70;;
1088;SDS011;533;53.556;9.990;2022-09-12T15:05:24;6.60;;;6.00;;
1088;SDS011;533;53.556;9.990;2022-09-12T15:07:58;6.10;;;5.50;;
1088;SDS011;533;53.556;9.990;2022-09-12T15:10:35;5.87;;;5.03;;
1088;SDS011;533;53.556;9.990;2022-09-12T15:13:10;6.70;;;4.83;;
1088;SDS011;533;53.556;9.990;2022-09-12T15:15:48;6.80;;;4.53;;
1088;SDS011;533;53.556;9.990;2022-09-12T15:18:23;6.30;;;5.13;;
1088;SDS011;533;53.556;9.990;2022-09-12T15:20:58;5.90;;;4.70;;
1088;SDS011;533;53.556;9.990;2022-09-12T15:23:42;6.30;;;5.03;;
1088;SDS011;533;53.556;9.990;2022-09-12T15:26:17;6.70;;;4.73;;
1088;SDS011;533;53.556;9.990;2022-09-12T15:28:50;6.13;;;5.53;;
1088;SDS011;533;53.556;9.990;2022-09-12T15:31:24;8.60;;;7.00;;
1088;SDS011;533;53.556;9.990;2022-09-12T15:33:59;5.30;;;4.80;;
1088;SDS011;533;53.556;9.990;2022-09-12T15:36:31;6.83;;;5.40;;
1088;SDS011;533;53.556;9.990;2022-09-12T15:39:03;4.97;;;4.47;;
1088;SDS011;533;53.556;9.990;2022-09-12T15:41:36;7.30;;;6.60;;
1088;SDS011;533;53.556;9.990;2022-09-12T15:44:11;9.33;;;5.97;;
1088;SDS011;533;53.556;9.990;2022-09-12T15:46:43;6.47;;;5.80;;
1088;SDS011;533;53.556;9.990;2022-09-12T15:49:16;8.90;;;6.80;;
1088;SDS011;533;53.556;9.990;2022-09-12T15:51:49;8.43;;;5.70;;
1088;SDS011;533;53.556;9.990;2022-09-12T15:54:21;6.03;;;5.30;;
1088;SDS011;533;53.556;9.990;2022-09-12T15:56:53;6.43;;;5.73;;
1088;SDS011;533;53.556;9.990;2022-09-12T15:59:25;7.53;;;5.30;;
1088;SDS011;533;53.556;9.990;2022-09-12T16:01:57;6.27;;;5.67;;
1088;SDS011;533;53.556;9.990;2022-09-12T16:04:30;7.87;;;6.60;;
1088;SDS011;533;53.556;9.990;2022-09-12T16:07:02;6.53;;;5.20;;
1088;SDS011;533;53.556;9.990;2022-09-12T16:09:34;7.20;;;6.50;;
1088;SDS011;533;53.556;9.990;2022-09-12T16:12:08;8.37;;;7.23;;
1088;SDS011;533;53.556;9.990;2022-09-12T16:14:40;9.07;;;7.53;;
1088;SDS011;533;53.556;9.990;2022-09-12T16:17:12;7.07;;;6.40;;
1088;SDS011;533;53.556;9.990;2022-09-12T16:19:44;6.83;;;6.13;;
1088;SDS011;533;53.556;9.990;2022-09-12T16:22:16;9.93;;;6.70;;
1088;SDS011;533;53.556;9.990;2022-09-12T16:24:48;7.60;;;6.67;;
1088;SDS011;533;53.556;9.990;2022-09-12T16:27:20;5.63;;;5.13;;
1088;SDS011;533;53.556;9.990;2022-09-12T16:29:51;8.37;;;5.90;;
1088;SDS011;533;53.556;9.990;2022-09-12T16:32:23;4.93;;;4.33;;
1088;SDS011;533;53.556;9.990;2022-09-12T16:34:56;6.30;;;4.83;;
1088;SDS011;533;53.556;9.990;2022-09-12T16:37:28;8.20;;;5.13;;
1088;SDS011;533;53.556;9.990;2022-09-12T16:40:02;6.63;;;5.37;;
1088;SDS011;533;53.556;9.990;2022-09-12T16:42:35;5.70;;;4.70;;
1088;SDS011;533;53.556;9.990;2022-09-12T16:45:12;7.40;;;5.30;;
1088;SDS011;533;53.556;9.990;2022-09-12T16:47:45;10.03;;;5.73;;
1088;SDS011;533;53.556;9.990;2022-09-12T16:50:17;13.53;;;6.00;;
1088;SDS011;533;53.556;9.990;2022-09-12T16:52:49;5.10;;;4.50;;
1088;SDS011;533;53.556;9.990;2022-09-12T16:55:21;6.17;;;5.57;;
1088;SDS011;533;53.556;9.990;2022-09-12T16:57:53;7.20;;;5.93;;
1088;SDS011;533;53.556;9.990;2022-09-12T17:00:26;9.63;;;6.10;;
1088;SDS011;533;53.556;9.990;2022-09-12T17:02:59;8.13;;;7.33;;
1088;SDS011;533;53.556;9.990;2022-09-12T17:05:31;7.60;;;6.80;;
1088;SDS011;533;53.556;9.990;2022-09-12T17:08:03;6.67;;;6.00;;
1088;SDS011;533;53.556;9.990;2022-09-12T17:10:39;11.50;;;6.77;;
1088;SDS011;533;53.556;9.990;2022-09-12T17:13:11;7.73;;;7.03;;
1088;SDS011;533;53.556;9.990;2022-09-12T17:15:43;8.37;;;5.80;;
1088;SDS011;533;53.556;9.990;2022-09-12T17:18:16;8.13;;;7.30;;
1088;SDS011;533;53.556;9.990;2022-09-12T17:20:48;7.17;;;6.50;;
1088;SDS011;533;53.556;9.990;2022-09-12T17:23:21;7.20;;;6.50;;
1088;SDS011;533;53.556;9.990;2022-09-12T17:25:53;9.63;;;7.63;;
1088;SDS011;533;53.556;9.990;2022-09-12T17:28:25;10.90;;;9.20;;
1088;SDS011;533;53.556;9.990;2022-09-12T17:31:00;9.87;;;8.70;;
1088;SDS011;533;53.556;9.990;2022-09-12T17:33:35;13.53;;;8.40;;
1088;SDS011;533;53.556;9.990;2022-09-12T17:36:10;9.80;;;7.10;;
1088;SDS011;533;53.556;9.990;2022-09-12T17:38:44;8.13;;;7.33;;
1088;SDS011;533;53.556;9.990;2022-09-12T17:41:17;8.00;;;7.30;;
1088;SDS011;533;53.556;9.990;2022-09-12T17:43:54;10.80;;;9.53;;
1088;SDS011;533;53.556;9.990;2022-09-12T17:46:31;9.40;;;8.50;;
1088;SDS011;533;53.556;9.990;2022-09-12T17:49:07;8.03;;;6.93;;
1088;SDS011;533;53.556;9.990;2022-09-12T17:51:42;8.20;;;6.80;;
1088;SDS011;533;53.556;9.990;2022-09-12T17:54:15;7.60;;;6.80;;
1088;SDS011;533;53.556;9.990;2022-09-12T17:56:51;8.17;;;7.33;;
1088;SDS011;533;53.556;9.990;2022-09-12T17:59:23;11.20;;;8.87;;
1088;SDS011;533;53.556;9.990;2022-09-12T18:01:55;9.43;;;8.60;;
1088;SDS011;533;53.556;9.990;2022-09-12T18:04:46;8.33;;;7.33;;
1088;SDS011;533;53.556;9.990;2022-09-12T18:07:19;8.47;;;7.50;;
1088;SDS011;533;53.556;9.990;2022-09-12T18:09:51;9.60;;;8.03;;
1088;SDS011;533;53.556;9.990;2022-09-12T18:12:23;9.30;;;8.40;;
1088;SDS011;533;53.556;9.990;2022-09-12T18:14:55;11.23;;;9.33;;
1088;SDS011;533;53.556;9.990;2022-09-12T18:17:30;8.20;;;7.40;;
1088;SDS011;533;53.556;9.990;2022-09-12T18:20:02;9.37;;;8.27;;
1088;SDS011;533;53.556;9.990;2022-09-12T18:22:34;7.37;;;6.27;;
1088;SDS011;533;53.556;9.990;2022-09-12T18:25:06;8.53;;;7.67;;
1088;SDS011;533;53.556;9.990;2022-09-12T18:27:39;8.73;;;7.20;;
1088;SDS011;533;53.556;9.990;2022-09-12T18:30:11;8.77;;;7.27;;